This is the latest recevied weather packets stored in our database for station/object WA1OUI. If no packets are shown the sender has not sent any weather packets the latest 1 day(s).
| Time | Temp. | Humidity | Pressure | Rain* | Wind** | Luminosity | Snow |
|---|---|---|---|---|---|---|---|
| 1778018192 | 22.78° C | 51% | 1005.3 hPa | 0 mm | 0 m/s | 41 W/m² | - |
| 1778017890 | 22.78° C | 50% | 1005.4 hPa | 0 mm | 0.45 m/s, 198° | 48 W/m² | - |
| 1778017588 | 22.78° C | 50% | 1005.4 hPa | 0 mm | 0.45 m/s, 4° | 54 W/m² | - |
| 1778017285 | 22.78° C | 49% | 1005.5 hPa | 0 mm | 0.45 m/s, 85° | 51 W/m² | - |
| 1778016982 | 23.33° C | 48% | 1005.6 hPa | 0 mm | 0.45 m/s, 169° | 56 W/m² | - |
| 1778016679 | 23.33° C | 48% | 1005.4 hPa | 0 mm | 0 m/s | 64 W/m² | - |
| 1778016375 | 23.89° C | 49% | 1005.2 hPa | 0 mm | 0 m/s | 71 W/m² | - |
| 1778016073 | 23.89° C | 48% | 1005.4 hPa | 0 mm | 1.34 m/s, 352° | 82 W/m² | - |
| 1778015769 | 23.89° C | 48% | 1005.3 hPa | 0 mm | 0 m/s | 95 W/m² | - |
| 1778015466 | 23.89° C | 47% | 1005.3 hPa | 0 mm | 0.89 m/s, 58° | 110 W/m² | - |
| 1778015163 | 24.44° C | 46% | 1005.4 hPa | 0 mm | 1.34 m/s, 116° | 113 W/m² | - |
| 1778014860 | 24.44° C | 48% | 1005.4 hPa | 0 mm | 0.89 m/s, 344° | 131 W/m² | - |
| 1778014558 | 24.44° C | 46% | 1005.3 hPa | 0 mm | 0 m/s | 127 W/m² | - |
| 1778014255 | 24.44° C | 46% | 1005.6 hPa | 0 mm | 0.45 m/s, 338° | 132 W/m² | - |
| 1778013952 | 24.44° C | 46% | 1005.3 hPa | 0 mm | 0.89 m/s, 23° | 148 W/m² | - |
| 1778013649 | 25° C | 45% | 1005.1 hPa | 0 mm | 0 m/s | 204 W/m² | - |
| 1778013346 | 25.56° C | 44% | 1005.2 hPa | 0 mm | 2.24 m/s, 346° | 230 W/m² | - |
| 1778013043 | 25.56° C | 44% | 1005.2 hPa | 0 mm | 0.45 m/s, 263° | 282 W/m² | - |
| 1778012739 | 26.11° C | 43% | 1005.1 hPa | 0 mm | 0.89 m/s, 84° | 317 W/m² | - |
| 1778012435 | 26.67° C | 43% | 1005.2 hPa | 0 mm | 0.89 m/s, 146° | 307 W/m² | - |
| 1778012132 | 26.67° C | 42% | 1005.1 hPa | 0 mm | 0 m/s | 349 W/m² | - |
| 1778011830 | 26.67° C | 42% | 1005.1 hPa | 0 mm | 1.34 m/s, 343° | 363 W/m² | - |
| 1778011527 | 26.11° C | 42% | 1005.1 hPa | 0 mm | 0.45 m/s, 41° | 401 W/m² | - |
| 1778011224 | 26.67° C | 42% | 1005.2 hPa | 0 mm | 0.89 m/s, 120° | 414 W/m² | - |
| 1778010920 | 26.11° C | 41% | 1005.3 hPa | 0 mm | 0.45 m/s, 166° | 440 W/m² | - |
* Rain latest hour (hover to see other rain measurements)
** Current wind speed in m/s (hover to see current wind gust speed)